createdAt,value
2022-11-27T00:01:30.904Z,7.00
2022-11-27T00:03:57.759Z,7.00
2022-11-27T00:06:27.054Z,7.00
2022-11-27T00:08:55.657Z,7.00
2022-11-27T00:11:24.531Z,7.00
2022-11-27T00:13:51.966Z,7.00
2022-11-27T00:16:20.182Z,7.00
2022-11-27T00:18:47.296Z,7.00
2022-11-27T00:21:16.375Z,7.00
2022-11-27T00:23:43.511Z,7.00
2022-11-27T00:26:11.085Z,7.00
2022-11-27T00:28:38.210Z,7.00
2022-11-27T00:31:13.074Z,7.00
2022-11-27T00:33:39.865Z,7.00
2022-11-27T00:36:07.609Z,7.00
2022-11-27T00:38:38.795Z,7.00
2022-11-27T00:41:11.055Z,7.00
2022-11-27T00:43:43.948Z,7.00
2022-11-27T00:46:16.179Z,7.00
2022-11-27T00:48:43.613Z,7.00
2022-11-27T00:51:17.706Z,7.00
2022-11-27T00:53:45.113Z,7.00
2022-11-27T00:56:20.012Z,7.00
2022-11-27T00:58:47.101Z,7.00
2022-11-27T01:01:20.422Z,7.00
2022-11-27T01:03:48.004Z,7.00
2022-11-27T01:06:15.585Z,7.00
2022-11-27T01:08:42.725Z,7.00
2022-11-27T01:11:19.786Z,7.00
2022-11-27T01:13:46.998Z,7.00
2022-11-27T01:16:20.138Z,7.00
2022-11-27T01:18:48.314Z,7.00
2022-11-27T01:21:17.777Z,7.00
2022-11-27T01:23:44.995Z,7.00
2022-11-27T01:26:12.557Z,7.00
2022-11-27T01:28:39.844Z,7.00
2022-11-27T01:31:13.239Z,7.00
2022-11-27T01:33:40.228Z,7.00
2022-11-27T01:36:08.063Z,7.00
2022-11-27T01:38:35.117Z,6.90
2022-11-27T01:41:03.336Z,6.90
2022-11-27T01:43:44.206Z,6.90
2022-11-27T01:46:31.212Z,7.00
2022-11-27T01:49:04.210Z,7.00
2022-11-27T01:51:31.474Z,6.90
2022-11-27T01:53:58.399Z,6.90
2022-11-27T01:56:25.822Z,6.90
2022-11-27T01:58:52.968Z,6.90
2022-11-27T02:01:19.952Z,6.90
2022-11-27T02:03:46.823Z,6.90
2022-11-27T02:06:14.044Z,6.90
2022-11-27T02:08:41.923Z,6.90
2022-11-27T02:11:45.753Z,6.90
2022-11-27T02:14:45.203Z,6.90
2022-11-27T02:17:26.719Z,6.90
2022-11-27T02:20:18.005Z,6.90
2022-11-27T02:23:01.943Z,6.90
2022-11-27T02:25:46.970Z,6.90
2022-11-27T02:28:42.568Z,6.90
2022-11-27T02:31:22.079Z,6.90
2022-11-27T02:33:51.761Z,6.80
2022-11-27T02:36:26.617Z,6.80
2022-11-27T02:38:59.602Z,6.80
2022-11-27T02:41:39.358Z,6.80
2022-11-27T02:44:07.686Z,6.80
2022-11-27T02:46:34.580Z,6.80
2022-11-27T02:49:05.761Z,6.80
2022-11-27T02:51:39.085Z,6.70
2022-11-27T02:54:07.982Z,6.70
2022-11-27T02:56:35.151Z,6.60
2022-11-27T02:59:06.446Z,6.60
2022-11-27T03:01:36.475Z,6.50
2022-11-27T03:04:07.197Z,6.40
2022-11-27T03:06:39.309Z,6.30
2022-11-27T03:09:08.883Z,6.20
2022-11-27T03:11:36.302Z,6.20
2022-11-27T03:14:06.904Z,6.10
2022-11-27T03:16:47.798Z,6.00
2022-11-27T03:19:19.954Z,6.00
2022-11-27T03:21:50.542Z,5.90
2022-11-27T03:24:17.506Z,5.90
2022-11-27T03:26:44.473Z,5.90
2022-11-27T03:29:15.122Z,5.80
2022-11-27T03:31:41.980Z,5.70
2022-11-27T03:34:08.915Z,5.60
2022-11-27T03:36:35.698Z,5.60
2022-11-27T03:39:03.376Z,5.50
2022-11-27T03:41:50.736Z,5.40
2022-11-27T03:44:41.044Z,5.40
2022-11-27T03:47:20.314Z,5.40
2022-11-27T03:50:12.995Z,5.30
2022-11-27T03:52:42.873Z,5.30
2022-11-27T03:55:30.850Z,5.30
2022-11-27T03:58:03.727Z,5.30
2022-11-27T04:00:32.071Z,5.30
2022-11-27T04:02:58.964Z,5.20
2022-11-27T04:05:25.769Z,5.20
2022-11-27T04:07:52.612Z,5.20
2022-11-27T04:10:19.682Z,5.10
2022-11-27T04:12:46.798Z,5.00
2022-11-27T04:15:13.918Z,4.90
2022-11-27T04:17:40.682Z,4.90
2022-11-27T04:20:08.264Z,4.90
2022-11-27T04:22:35.053Z,4.80
2022-11-27T04:25:01.870Z,4.70
2022-11-27T04:27:28.703Z,4.70
2022-11-27T04:29:55.500Z,4.50
2022-11-27T04:32:22.330Z,4.50
2022-11-27T04:34:49.102Z,4.40
2022-11-27T04:37:15.870Z,4.40
2022-11-27T04:39:42.662Z,4.40
2022-11-27T04:42:09.630Z,4.40
2022-11-27T04:44:36.883Z,4.40
2022-11-27T04:47:03.764Z,4.40
2022-11-27T04:49:30.555Z,4.40
2022-11-27T04:51:57.421Z,4.40
2022-11-27T04:54:24.234Z,4.40
2022-11-27T04:56:51.058Z,4.40
2022-11-27T04:59:17.935Z,4.30
2022-11-27T05:01:44.745Z,4.30
2022-11-27T05:04:11.535Z,4.40
2022-11-27T05:06:38.300Z,4.40
2022-11-27T05:09:05.057Z,4.40
2022-11-27T05:11:32.661Z,4.40
2022-11-27T05:14:18.242Z,4.40
2022-11-27T05:16:53.304Z,4.30
2022-11-27T05:19:22.659Z,4.30
2022-11-27T05:21:50.483Z,4.30
2022-11-27T05:24:18.407Z,4.20
2022-11-27T05:26:45.350Z,4.20
2022-11-27T05:29:14.899Z,4.20
2022-11-27T05:31:42.541Z,4.10
2022-11-27T05:34:09.762Z,4.00
2022-11-27T05:36:36.960Z,3.90
2022-11-27T05:39:08.518Z,3.90
2022-11-27T05:41:36.581Z,3.80
2022-11-27T05:44:04.424Z,3.80
2022-11-27T05:46:31.605Z,3.70
2022-11-27T05:48:58.574Z,3.70
2022-11-27T05:51:25.320Z,3.70
2022-11-27T05:53:52.106Z,3.70
2022-11-27T05:56:19.196Z,3.70
2022-11-27T05:58:47.738Z,3.80
2022-11-27T06:01:16.185Z,3.90
2022-11-27T06:03:43.048Z,3.90
2022-11-27T06:06:13.214Z,3.90
2022-11-27T06:08:41.199Z,3.80
2022-11-27T06:11:13.325Z,3.80
2022-11-27T06:13:40.638Z,3.70
2022-11-27T06:16:16.457Z,3.60
2022-11-27T06:18:43.507Z,3.60
2022-11-27T06:21:14.517Z,3.50
2022-11-27T06:23:42.837Z,3.60
2022-11-27T06:26:17.924Z,3.60
2022-11-27T06:28:45.467Z,3.60
2022-11-27T06:31:17.992Z,3.60
2022-11-27T06:33:46.430Z,3.60
2022-11-27T06:36:13.523Z,3.60
2022-11-27T06:38:40.387Z,3.60
2022-11-27T06:41:09.616Z,3.60
2022-11-27T06:43:36.456Z,3.70
2022-11-27T06:46:04.187Z,3.70
2022-11-27T06:48:31.994Z,3.80
2022-11-27T06:51:00.724Z,3.90
2022-11-27T06:53:28.565Z,3.90
2022-11-27T06:55:55.871Z,4.00
2022-11-27T06:58:27.791Z,4.00
2022-11-27T07:01:05.530Z,4.00
2022-11-27T07:03:32.429Z,4.10
2022-11-27T07:06:00.256Z,4.10
2022-11-27T07:08:27.119Z,4.10
2022-11-27T07:10:54.178Z,4.10
2022-11-27T07:13:20.976Z,4.10
2022-11-27T07:15:47.828Z,4.10
2022-11-27T07:18:14.646Z,4.10
2022-11-27T07:20:41.398Z,4.10
2022-11-27T07:23:08.159Z,4.00
2022-11-27T07:25:37.164Z,4.00
2022-11-27T07:28:03.981Z,4.00
2022-11-27T07:30:30.784Z,4.00
2022-11-27T07:32:57.546Z,4.00
2022-11-27T07:35:24.372Z,4.10
2022-11-27T07:37:51.162Z,4.10
2022-11-27T07:40:18.457Z,4.10
2022-11-27T07:42:45.205Z,4.10
2022-11-27T07:45:12.182Z,4.10
2022-11-27T07:47:39.331Z,4.10
2022-11-27T07:50:08.358Z,4.10
2022-11-27T07:52:41.032Z,4.20
2022-11-27T07:55:09.635Z,4.20
2022-11-27T07:57:36.501Z,4.20
2022-11-27T08:00:04.651Z,4.20
2022-11-27T08:02:31.402Z,4.30
2022-11-27T08:04:58.255Z,4.20
2022-11-27T12:34:08.405Z,5.50
2022-11-27T12:36:44.261Z,5.60
2022-11-27T12:39:31.203Z,5.60
2022-11-27T12:42:01.220Z,5.60
2022-11-27T12:45:01.806Z,5.60
2022-11-27T12:47:40.440Z,5.60
2022-11-27T12:50:27.476Z,5.50
2022-11-27T12:53:20.145Z,5.50
2022-11-27T12:56:01.450Z,5.50
2022-11-27T12:58:39.804Z,5.60
2022-11-27T13:01:17.016Z,5.60
2022-11-27T13:04:06.122Z,5.50
2022-11-27T13:06:36.390Z,5.50
2022-11-27T13:09:15.819Z,5.50
2022-11-27T13:11:43.220Z,5.60
2022-11-27T13:14:19.694Z,5.50
2022-11-27T13:16:50.373Z,5.50
2022-11-27T13:19:20.863Z,5.40
2022-11-27T13:21:47.902Z,5.40
2022-11-27T13:24:14.897Z,5.40
2022-11-27T13:26:56.702Z,5.40
2022-11-27T13:29:50.790Z,5.40
2022-11-27T13:32:36.704Z,5.40
2022-11-27T13:35:07.021Z,5.40
2022-11-27T13:37:35.268Z,5.40
2022-11-27T13:40:13.740Z,5.30
2022-11-27T13:42:44.539Z,5.40
2022-11-27T13:45:26.509Z,5.30
2022-11-27T13:47:54.324Z,5.30
2022-11-27T13:50:25.755Z,5.30
2022-11-27T13:53:07.341Z,5.30
2022-11-27T13:55:36.420Z,5.30
2022-11-27T13:58:05.002Z,5.30
2022-11-27T14:00:40.466Z,5.30
2022-11-27T14:03:13.032Z,5.30
2022-11-27T14:05:45.087Z,5.30
2022-11-27T14:08:20.379Z,5.20
2022-11-27T14:10:52.152Z,5.20
2022-11-27T14:13:21.468Z,5.20
2022-11-27T14:16:02.682Z,5.20
2022-11-27T14:18:30.306Z,5.10
2022-11-27T14:21:03.037Z,5.10
2022-11-27T14:23:34.688Z,5.10
2022-11-27T14:26:15.377Z,5.10
2022-11-27T14:28:45.308Z,5.10
2022-11-27T14:31:27.384Z,5.10
2022-11-27T14:34:14.091Z,5.10
2022-11-27T14:36:41.037Z,5.10
2022-11-27T14:39:07.819Z,5.00
2022-11-27T14:41:34.564Z,5.00
2022-11-27T14:44:02.816Z,5.00
2022-11-27T14:46:31.193Z,5.00
2022-11-27T14:48:58.013Z,5.00
2022-11-27T14:51:28.112Z,4.90
2022-11-27T14:53:59.201Z,4.90
2022-11-27T14:56:35.236Z,4.90
2022-11-27T14:59:02.565Z,4.90
2022-11-27T15:01:31.757Z,4.90
2022-11-27T15:04:05.964Z,4.90
2022-11-27T15:06:45.214Z,4.90
2022-11-27T15:09:31.651Z,4.90
2022-11-27T15:12:07.112Z,4.80
2022-11-27T15:14:33.876Z,4.80
2022-11-27T15:17:00.731Z,4.80
2022-11-27T15:19:31.324Z,4.80
2022-11-27T15:21:58.312Z,4.80
2022-11-27T15:24:43.814Z,4.80
2022-11-27T15:27:21.181Z,4.80
2022-11-27T15:29:51.214Z,4.80
2022-11-27T15:32:23.423Z,4.80
2022-11-27T15:34:52.047Z,4.70
2022-11-27T15:37:24.906Z,4.70
2022-11-27T15:39:53.155Z,4.70
2022-11-27T15:42:20.934Z,4.70
2022-11-27T15:44:49.383Z,4.70
2022-11-27T15:47:36.650Z,4.70
2022-11-27T15:50:05.280Z,4.70
2022-11-27T15:52:33.121Z,4.70
2022-11-27T15:54:59.857Z,4.70
2022-11-27T15:57:26.607Z,4.70
2022-11-27T15:59:53.794Z,4.70
2022-11-27T16:02:20.614Z,4.70
2022-11-27T16:04:47.524Z,4.70
2022-11-27T16:07:14.703Z,4.70
2022-11-27T16:09:41.587Z,4.70
2022-11-27T16:12:08.363Z,4.70
2022-11-27T16:14:35.147Z,4.70
2022-11-27T16:17:02.200Z,4.70
2022-11-27T16:19:30.040Z,4.70
2022-11-27T16:21:56.966Z,4.70
2022-11-27T16:24:23.792Z,4.70
2022-11-27T16:26:50.595Z,4.70
2022-11-27T16:29:17.445Z,4.70
2022-11-27T16:31:44.316Z,4.70
2022-11-27T16:34:11.486Z,4.70
2022-11-27T16:36:40.461Z,4.70
2022-11-27T16:39:07.232Z,4.70
2022-11-27T16:41:34.126Z,4.70
2022-11-27T16:44:00.979Z,4.70
2022-11-27T16:46:29.898Z,4.70
2022-11-27T16:48:58.760Z,4.70
2022-11-27T16:51:28.515Z,4.70
2022-11-27T16:53:57.544Z,4.70
2022-11-27T16:56:26.296Z,4.70
2022-11-27T16:58:56.748Z,4.70
2022-11-27T17:01:28.833Z,4.70
2022-11-27T17:03:56.267Z,4.60
2022-11-27T17:06:26.539Z,4.70
2022-11-27T17:08:54.549Z,4.60
2022-11-27T17:11:24.725Z,4.60
2022-11-27T17:13:52.571Z,4.60
2022-11-27T17:16:19.574Z,4.60
2022-11-27T17:18:48.041Z,4.60
2022-11-27T17:21:18.143Z,4.60
2022-11-27T17:23:46.832Z,4.60
2022-11-27T17:26:16.129Z,4.50
2022-11-27T17:28:42.875Z,4.50
2022-11-27T17:31:15.928Z,4.50
2022-11-27T17:33:43.174Z,4.50
2022-11-27T17:36:10.052Z,4.50
2022-11-27T17:38:36.872Z,4.50
2022-11-27T17:41:08.089Z,4.50
2022-11-27T17:43:35.716Z,4.50
2022-11-27T17:46:19.180Z,4.50
2022-11-27T20:00:08.023Z,4.70
2022-11-27T20:02:36.226Z,4.70
2022-11-27T20:05:04.151Z,4.70
2022-11-27T20:07:31.004Z,4.80
2022-11-27T20:09:58.578Z,4.80
2022-11-27T20:12:25.371Z,4.80
2022-11-27T20:14:52.181Z,4.80
2022-11-27T20:17:19.587Z,4.90
2022-11-27T20:19:46.332Z,4.80
2022-11-27T20:22:13.085Z,4.90
2022-11-27T20:24:58.155Z,4.90
2022-11-27T20:27:28.315Z,4.90
2022-11-27T20:29:56.047Z,4.90
2022-11-27T20:32:22.848Z,4.90
2022-11-27T20:34:49.623Z,4.90
2022-11-27T20:37:16.470Z,4.90
2022-11-27T20:39:43.499Z,4.90
2022-11-27T20:42:10.504Z,4.90
2022-11-27T20:44:37.450Z,4.90
2022-11-27T20:47:04.278Z,4.90
2022-11-27T20:49:33.704Z,4.80
2022-11-27T20:52:03.437Z,4.80
2022-11-27T20:54:30.266Z,4.80
2022-11-27T20:56:57.064Z,4.80
2022-11-27T20:59:23.801Z,4.80
2022-11-27T21:01:50.675Z,4.80
2022-11-27T21:04:24.110Z,4.80
2022-11-27T21:06:51.258Z,4.80
2022-11-27T21:09:18.626Z,4.80
2022-11-27T21:11:47.290Z,4.80
2022-11-27T21:14:15.799Z,4.80
2022-11-27T21:16:46.865Z,4.80
2022-11-27T21:19:27.035Z,4.80
2022-11-27T21:21:54.305Z,4.80
2022-11-27T21:24:22.515Z,4.80
2022-11-27T21:26:49.613Z,4.80
2022-11-27T21:29:16.555Z,4.80
2022-11-27T22:02:28.348Z,4.90
2022-11-27T22:04:55.180Z,4.90
2022-11-27T22:07:21.961Z,4.90
2022-11-27T22:09:48.766Z,4.90
2022-11-27T22:12:15.584Z,4.90
2022-11-27T22:14:42.500Z,4.90
2022-11-27T22:17:09.508Z,4.90
2022-11-27T22:19:40.293Z,4.90
2022-11-27T22:22:07.078Z,4.90
2022-11-27T22:24:33.987Z,4.90
2022-11-27T22:27:00.816Z,4.90
2022-11-27T22:29:27.669Z,4.90
2022-11-27T22:31:54.450Z,4.90
2022-11-27T22:34:21.283Z,4.90
2022-11-27T22:36:48.033Z,4.90
2022-11-27T22:39:15.074Z,4.90
2022-11-27T22:41:42.384Z,4.90
2022-11-27T22:44:20.824Z,4.90
2022-11-27T22:46:47.800Z,4.90
2022-11-27T22:49:17.105Z,4.90
2022-11-27T22:51:44.531Z,4.90
2022-11-27T22:54:13.397Z,4.90
2022-11-27T22:56:40.520Z,4.90
2022-11-27T23:01:54.560Z,4.90
2022-11-27T23:04:21.312Z,4.90
2022-11-27T23:06:48.601Z,4.90
2022-11-27T23:09:17.769Z,4.90
2022-11-27T23:11:44.839Z,4.90
2022-11-27T23:14:11.750Z,4.90
2022-11-27T23:16:38.748Z,4.90
2022-11-27T23:19:05.592Z,4.90
2022-11-27T23:21:35.406Z,4.90
2022-11-27T23:24:02.219Z,4.90
2022-11-27T23:26:29.191Z,4.90
2022-11-27T23:28:56.151Z,4.90
2022-11-27T23:31:30.695Z,4.90
2022-11-27T23:33:59.245Z,5.00
2022-11-27T23:36:26.064Z,5.00
2022-11-27T23:38:53.132Z,5.00
2022-11-27T23:41:22.543Z,5.00
2022-11-27T23:43:49.805Z,5.00
2022-11-27T23:46:18.892Z,5.00
2022-11-27T23:48:45.950Z,5.10
2022-11-27T23:51:18.430Z,5.10
2022-11-27T23:53:45.871Z,5.10
2022-11-27T23:56:15.004Z,5.10
2022-11-27T23:58:46.728Z,5.10
